Data for 10/22/2013

Time Sea-Level Adjusted Pressure Absolute Pressure Temperature Relative Humidity Dew Point   
(mb) (inHg) (mb) (inHg) (C) (F) (%) (C) (F)
00:05 1024 30.24 853 25.19 5.4 41.7 61 -1.6 29.1
00:10 1024 30.24 853 25.19 5.6 42 60 -1.5 29.3
00:15 1024 30.24 853 25.19 5.6 42.2 60 -1.6 29.2
00:20 1024 30.24 853 25.19 5.9 42.6 58 -1.6 29
00:25 1024 30.24 853 25.19 6.2 43.1 57 -1.6 29.1
00:30 1024 30.24 853 25.19 6.2 43.1 57 -1.7 29
00:35 1024 30.24 853 25.19 6.1 42.9 58 -1.5 29.3
00:40 1024 30.24 853 25.19 5.9 42.7 58 -1.7 28.9
00:45 1024 30.24 853 25.19 6.1 43 58 -1.6 29.1
00:50 1024 30.24 853 25.19 6.1 42.9 58 -1.5 29.2
00:55 1024 30.24 853 25.19 6.1 43 57 -1.7 28.9
01:00 1024 30.24 853 25.19 6.5 43.6 56 -1.7 29
01:05 1024 30.24 853 25.19 6.3 43.4 58 -1.4 29.5
01:10 1024 30.24 853 25.19 5.9 42.6 60 -1.3 29.6
01:15 1024 30.24 853 25.19 5.6 42 61 -1.4 29.5
01:20 1024 30.24 853 25.19 5.4 41.6 61 -1.5 29.4
01:25 1024 30.24 853 25.19 5.4 41.7 61 -1.5 29.3
01:30 1024 30.24 853 25.19 5.6 42.1 60 -1.7 29
01:35 1024 30.24 853 25.19 5.8 42.5 60 -1.4 29.5
01:40 1024 30.24 853 25.19 5.6 42 61 -1.4 29.4
01:45 1024 30.24 853 25.19 5.4 41.8 61 -1.5 29.3
01:50 1024 30.24 853 25.19 5.6 42 60 -1.7 28.9
01:55 1024 30.24 853 25.19 5.9 42.6 59 -1.6 29.2
02:00 1024 30.24 853 25.19 5.8 42.4 59 -1.5 29.3
02:05 1024 30.24 853 25.19 5.6 42.1 61 -1.4 29.5
02:10 1024 30.24 853 25.19 5.6 42.1 59 -1.7 28.9
02:15 1024 30.24 853 25.19 5.8 42.5 59 -1.6 29.2
02:20 1024 30.24 853 25.19 5.8 42.5 60 -1.4 29.4
02:25 1024 30.24 853 25.19 5.7 42.3 60 -1.4 29.4
02:30 1024 30.24 853 25.19 5.6 42.1 61 -1.4 29.5
02:35 1024 30.24 853 25.19 5.4 41.8 61 -1.6 29.2
02:40 1024 30.24 853 25.19 5.5 41.9 61 -1.4 29.5
02:45 1023 30.21 853 25.19 5.4 41.8 60 -1.6 29.1
02:50 1023 30.21 853 25.19 5.6 42.1 61 -1.3 29.7
02:55 1023 30.21 853 25.19 5.1 41.3 63 -1.3 29.6
03:00 1023 30.21 853 25.19 5 41 63 -1.4 29.5
03:05 1023 30.21 853 25.19 4.9 40.8 64 -1.3 29.6
03:10 1023 30.21 853 25.19 4.7 40.5 63 -1.7 29
03:15 1023 30.21 853 25.19 5.3 41.5 61 -1.7 28.9
03:20 1023 30.21 853 25.19 5.7 42.3 60 -1.3 29.6
03:25 1023 30.21 853 25.19 5.6 42 61 -1.5 29.4
03:30 1023 30.21 853 25.19 5.6 42.1 60 -1.5 29.3
03:35 1023 30.21 853 25.19 5.6 42.1 61 -1.3 29.6
03:40 1023 30.21 853 25.19 5.5 41.9 61 -1.5 29.4
03:45 1023 30.21 853 25.19 5.6 42 61 -1.4 29.4
03:50 1023 30.21 853 25.19 5.5 41.8 62 -1.3 29.7
03:55 1023 30.21 853 25.19 5.3 41.5 62 -1.4 29.5
04:00 1023 30.21 853 25.19 5 41 63 -1.4 29.5
04:05 1023 30.21 853 25.19 4.8 40.6 64 -1.5 29.2
04:10 1023 30.21 853 25.19 4.4 39.9 66 -1.4 29.5
04:15 1023 30.21 853 25.19 4.5 40 65 -1.6 29.2
04:20 1023 30.21 853 25.19 4.4 39.9 66 -1.5 29.4
04:25 1023 30.21 853 25.19 4.1 39.4 67 -1.5 29.3
04:30 1023 30.21 853 25.19 4.1 39.3 67 -1.5 29.3
04:35 1023 30.21 853 25.19 4.3 39.7 66 -1.5 29.3
04:40 1023 30.21 853 25.19 4 39.2 68 -1.5 29.4
04:45 1023 30.21 853 25.19 3.7 38.7 68 -1.6 29.1
04:50 1023 30.21 853 25.19 3.6 38.5 69 -1.6 29.2
04:55 1023 30.21 853 25.19 3.5 38.2 69 -1.6 29
05:00 1023 30.21 853 25.19 3.3 37.9 70 -1.6 29.2
05:05 1023 30.21 853 25.19 3 37.5 73 -1.4 29.5
05:10 1024 30.24 853 25.19 2.4 36.4 75 -1.6 29.1
05:15 1024 30.24 853 25.19 2.2 35.9 75 -1.7 28.9
05:20 1024 30.24 853 25.19 2.3 36.1 75 -1.8 28.8
05:25 1024 30.24 853 25.19 2.4 36.4 74 -1.7 29
05:30 1024 30.24 853 25.19 2.4 36.4 74 -1.7 28.9
05:35 1024 30.24 853 25.19 2.6 36.6 74 -1.7 29
05:40 1024 30.24 853 25.19 2.5 36.5 74 -1.7 28.9
05:45 1024 30.24 853 25.19 2.6 36.6 73 -1.8 28.7
05:50 1024 30.24 853 25.19 2.9 37.2 72 -1.7 28.9
05:55 1024 30.24 853 25.19 3.1 37.5 71 -1.6 29.1
06:00 1024 30.24 853 25.19 2.7 36.9 72 -1.8 28.8
06:05 1024 30.24 853 25.19 2.5 36.5 75 -1.5 29.2
06:10 1024 30.24 853 25.19 2.6 36.8 73 -1.7 29
06:15 1024 30.24 853 25.19 2.4 36.3 74 -1.8 28.8
06:20 1024 30.24 853 25.19 2 35.6 76 -1.7 28.9
06:25 1024 30.24 853 25.19 2 35.6 75 -2 28.4
06:30 1024 30.24 853 25.19 2.4 36.3 72 -2.1 28.2
06:35 1024 30.24 853 25.19 2.8 37 71 -1.9 28.6
06:40 1024 30.24 853 25.19 2.8 37 72 -1.8 28.7
06:45 1024 30.24 853 25.19 2.9 37.2 70 -2 28.5
06:50 1024 30.24 853 25.19 2.9 37.1 72 -1.7 28.9
06:55 1024 30.24 853 25.19 2.8 37.1 71 -1.9 28.6
07:00 1024 30.24 853 25.19 3 37.3 71 -1.9 28.6
07:05 1024 30.24 853 25.19 3.4 38.1 69 -1.8 28.7
07:10 1024 30.24 853 25.19 3.6 38.4 68 -1.7 28.9
07:15 1024 30.24 853 25.19 3.3 37.9 70 -1.7 29
07:20 1024 30.24 853 25.19 3 37.3 71 -1.7 28.9
07:25 1024 30.24 853 25.19 2.8 37 72 -1.8 28.7
07:30 1024 30.24 853 25.19 3.4 38.2 69 -1.8 28.8
07:35 1024 30.24 853 25.19 4.3 39.8 65 -1.6 29.1
07:40 1024 30.24 853 25.19 4.9 40.8 63 -1.6 29.1
07:45 1024 30.24 853 25.19 5.4 41.7 60 -1.6 29.1
07:50 1024 30.24 853 25.19 5.2 41.4 63 -1.3 29.6
07:55 1024 30.24 853 25.19 4.8 40.6 64 -1.5 29.2
08:00 1024 30.24 853 25.19 4.8 40.6 63 -1.6 29.2
08:05 1024 30.24 853 25.19 5 41.1 62 -1.6 29
08:10 1024 30.24 853 25.19 5.2 41.4 62 -1.4 29.4
08:15 1024 30.24 853 25.19 5.4 41.7 63 -1.1 30
08:20 1024 30.24 853 25.19 5.4 41.8 62 -1.3 29.7
08:25 1024 30.24 853 25.19 5.9 42.6 62 -0.9 30.4
08:30 1024 30.24 853 25.19 6.2 43.2 60 -0.9 30.4
08:35 1024 30.24 853 25.19 6.3 43.4 60 -0.8 30.5
08:40 1024 30.24 853 25.19 6.4 43.5 59 -0.9 30.3
08:45 1024 30.24 853 25.19 6.9 44.4 57 -0.9 30.3
08:50 1024 30.24 853 25.19 7.4 45.3 57 -0.6 30.9
08:55 1024 30.24 853 25.19 8.1 46.6 53 -0.8 30.6
09:00 1024 30.24 853 25.19 8.2 46.7 55 -0.3 31.5
09:05 1024 30.24 853 25.19 8.4 47.1 54 -0.3 31.5
09:10 1024 30.24 853 25.19 8.4 47.2 55 -0.1 31.7
09:15 1024 30.24 853 25.19 9.2 48.5 52 -0.3 31.5
09:20 1024 30.24 853 25.19 9.4 48.8 51 -0.3 31.4
09:25 1024 30.24 853 25.19 10 50.1 49 -0.2 31.7
09:30 1024 30.24 853 25.19 10.5 50.9 46 -0.5 31
09:35 1024 30.24 853 25.19 10.9 51.5 45 -0.6 30.8
09:40 1024 30.24 853 25.19 10.6 51.1 45 -0.7 30.7
09:45 1024 30.24 853 25.19 11.1 52 44 -0.8 30.6
09:50 1024 30.24 853 25.19 11.6 52.9 42 -0.8 30.6
09:55 1024 30.24 853 25.19 12 53.6 41 -0.9 30.4
10:00 1024 30.24 853 25.19 12.4 54.3 41 -0.5 31.1
10:05 1024 30.24 853 25.19 12.3 54.2 40 -0.9 30.3
10:10 1024 30.24 853 25.19 13.1 55.5 38 -0.8 30.6
10:15 1024 30.24 853 25.19 13.1 55.5 39 -0.4 31.3
10:20 1024 30.24 853 25.19 13.3 55.9 39 -0.3 31.4
10:25 1024 30.24 853 25.19 13.4 56.2 39 -0.2 31.7
10:30 1024 30.24 853 25.19 13.1 55.6 40 -0.2 31.7
10:35 1024 30.24 853 25.19 12.8 55 41 0.1 32.1
10:40 1024 30.24 853 25.19 13.1 55.6 40 -0.3 31.5
10:45 1024 30.24 853 25.19 14.3 57.7 38 0.1 32.2
10:50 1024 30.24 853 25.19 14.2 57.6 39 0.5 32.9
10:55 1024 30.24 853 25.19 13.4 56.1 42 0.7 33.2
11:00 1023 30.21 853 25.19 13.5 56.4 40 0.4 32.7
11:05 1023 30.21 853 25.19 14 57.1 39 0.2 32.4
11:10 1023 30.21 853 25.19 14.4 57.9 38 0.2 32.3
11:15 1023 30.21 852 25.16 14.5 58.1 38 0.4 32.8
11:20 1023 30.21 852 25.16 14.4 57.8 38 0.3 32.5
11:25 1023 30.21 852 25.16 14.5 58.2 38 0.5 32.8
11:30 1023 30.21 852 25.16 14.9 58.9 37 0.6 33.1
11:35 1023 30.21 852 25.16 15.1 59.1 37 0.5 32.9
11:40 1023 30.21 852 25.16 15.2 59.3 37 0.7 33.2
11:45 1023 30.21 852 25.16 15.4 59.8 36 0.4 32.7
11:50 1023 30.21 852 25.16 15.7 60.3 35 0.3 32.5
11:55 1023 30.21 852 25.16 16.1 61 35 0.9 33.6
12:00 1023 30.21 852 25.16 16.1 61 34 0.2 32.4
12:05 1023 30.21 852 25.16 16.2 61.1 33 -0.2 31.6
12:10 1023 30.21 852 25.16 16.3 61.3 33 0.2 32.3
12:15 1023 30.21 852 25.16 16.5 61.7 31 -0.7 30.7
12:20 1023 30.21 852 25.16 16.6 61.9 31 -0.6 31
12:25 1023 30.21 852 25.16 16.5 61.7 32 -0.3 31.5
12:30 1023 30.21 852 25.16 15.5 60 32 -1 30.1
12:35 1023 30.21 852 25.16 16 60.7 31 -1.1 30.1
12:40 1023 30.21 852 25.16 16.3 61.3 29 -1.5 29.3
12:45 1022 30.18 852 25.16 16.7 62.1 28 -1.7 29
12:50 1022 30.18 852 25.16 16.8 62.3 29 -1.4 29.5
12:55 1022 30.18 852 25.16 16.3 61.4 30 -1.1 30
13:00 1022 30.18 852 25.16 15.9 60.6 27 -2.9 26.7
13:05 1022 30.18 851 25.13 15.8 60.4 26 -3.4 25.8
13:10 1022 30.18 851 25.13 15.4 59.8 27 -3.5 25.6
13:15 1022 30.18 851 25.13 15.5 60 29 -2.6 27.4
13:20 1022 30.18 851 25.13 16.3 61.3 25 -3.8 25.2
13:25 1022 30.18 851 25.13 17 62.6 24 -3.7 25.3
13:30 1022 30.18 851 25.13 17.8 64 23 -3.7 25.4
13:35 1022 30.18 851 25.13 18.5 65.3 22 -3.7 25.4
13:40 1022 30.18 851 25.13 18.7 65.6 22 -3.2 26.3
13:45 1022 30.18 851 25.13 18.2 64.8 23 -3 26.7
13:50 1022 30.18 851 25.13 18 64.4 22 -3.8 25.2
13:55 1022 30.18 851 25.13 17.5 63.5 25 -2.4 27.7
14:00 1022 30.18 851 25.13 16.8 62.2 24 -3.6 25.5
14:05 1022 30.18 851 25.13 17.1 62.9 23 -4.1 24.6
14:10 1022 30.18 851 25.13 18.4 65.1 22 -3.8 25.1
14:15 1022 30.18 851 25.13 18.1 64.6 22 -3.6 25.5
14:20 1022 30.18 851 25.13 18 64.5 22 -3.8 25.1
14:25 1022 30.18 851 25.13 18.6 65.6 21 -4 24.8
14:30 1022 30.18 851 25.13 19.2 66.6 20 -3.9 25
14:35 1022 30.18 851 25.13 19.4 66.9 19 -4.9 23.2
14:40 1022 30.18 851 25.13 19.3 66.7 20 -4.3 24.3
14:45 1022 30.18 851 25.13 19.2 66.6 19 -4.5 23.9
14:50 1022 30.18 851 25.13 19.6 67.3 20 -4 24.8
14:55 1022 30.18 851 25.13 19.1 66.5 21 -3.9 25
15:00 1022 30.18 851 25.13 18.1 64.7 21 -4.3 24.2
15:05 1022 30.18 851 25.13 17.6 63.6 22 -4.4 24.2
15:10 1022 30.18 851 25.13 17.3 63.2 22 -4.7 23.5
15:15 1022 30.18 851 25.13 18.1 64.7 20 -4.9 23.2
15:20 1022 30.18 851 25.13 18.8 65.9 20 -4.3 24.3
15:25 1021 30.15 851 25.13 19 66.2 20 -4.3 24.2
15:30 1021 30.15 851 25.13 18.9 66.1 20 -4.4 24
15:35 1021 30.15 851 25.13 18.5 65.2 22 -3.7 25.3
15:40 1021 30.15 851 25.13 18.5 65.3 21 -4.1 24.6
15:45 1021 30.15 851 25.13 18.1 64.5 23 -3.2 26.3
15:50 1021 30.15 851 25.13 17.4 63.3 22 -4.3 24.3
15:55 1021 30.15 851 25.13 18 64.4 22 -3.8 25.1
16:00 1021 30.15 851 25.13 17.7 63.8 22 -4.1 24.6
16:05 1021 30.15 851 25.13 17.7 63.9 21 -4.5 23.9
16:10 1021 30.15 851 25.13 17.6 63.6 22 -4.2 24.5
16:15 1021 30.15 851 25.13 17.7 63.8 21 -4.6 23.7
16:20 1021 30.15 851 25.13 17.5 63.4 21 -4.8 23.4
16:25 1021 30.15 851 25.13 17.8 64 22 -4.3 24.2
16:30 1021 30.15 851 25.13 17.5 63.6 21 -4.8 23.4
16:35 1021 30.15 851 25.13 17.8 64 20 -5.3 22.4
16:40 1021 30.15 851 25.13 17.9 64.3 20 -5.3 22.4
16:45 1021 30.15 851 25.13 17.8 64.1 21 -4.5 23.8
16:50 1021 30.15 851 25.13 17.4 63.3 20 -5.5 22.2
16:55 1021 30.15 851 25.13 17.5 63.5 20 -5.5 22
17:00 1021 30.15 851 25.13 17.8 64.1 20 -5.3 22.5
17:05 1021 30.15 851 25.13 17.8 64.1 20 -5.5 22.1
17:10 1021 30.15 850 25.1 17.6 63.7 21 -5 23
17:15 1021 30.15 850 25.1 17.1 62.8 22 -4.8 23.3
17:20 1021 30.15 850 25.1 16.8 62.2 24 -4.1 24.6
17:25 1021 30.15 850 25.1 15.6 60 30 -2 28.5
17:30 1021 30.15 850 25.1 14 57.2 33 -1.7 28.9
17:35 1021 30.15 851 25.13 13.1 55.6 37 -1.1 30
17:40 1021 30.15 851 25.13 12.4 54.3 39 -1.3 29.7
17:45 1021 30.15 850 25.1 12 53.6 40 -1.2 29.8
17:50 1021 30.15 851 25.13 11.6 52.9 40 -1.5 29.3
17:55 1021 30.15 851 25.13 11.3 52.4 40 -1.6 29.1
18:00 1021 30.15 851 25.13 11.1 52 41 -1.6 29.1
18:05 1021 30.15 851 25.13 10.9 51.6 41 -1.8 28.7
18:10 1021 30.15 851 25.13 10.8 51.4 40 -2.1 28.2
18:15 1021 30.15 851 25.13 10.7 51.2 41 -2.1 28.3
18:20 1021 30.15 851 25.13 10.5 50.9 41 -2.1 28.3
18:25 1021 30.15 851 25.13 10.2 50.4 42 -2 28.3
18:30 1021 30.15 851 25.13 10 50 43 -2.1 28.3
18:35 1021 30.15 851 25.13 9.8 49.7 43 -2.2 28.1
18:40 1021 30.15 851 25.13 9.6 49.3 43 -2.2 28
18:45 1021 30.15 851 25.13 9.6 49.2 43 -2.3 27.9
18:50 1022 30.18 851 25.13 9.5 49.1 43 -2.4 27.7
18:55 1022 30.18 851 25.13 9.4 49 43 -2.5 27.5
19:00 1022 30.18 851 25.13 9.3 48.8 43 -2.5 27.5
19:05 1022 30.18 851 25.13 9.1 48.4 44 -2.5 27.5
19:10 1022 30.18 851 25.13 8.9 48 45 -2.5 27.6
19:15 1022 30.18 851 25.13 8.8 47.8 45 -2.6 27.4
19:20 1022 30.18 851 25.13 8.7 47.6 45 -2.5 27.5
19:25 1022 30.18 851 25.13 8.5 47.4 45 -2.6 27.4
19:30 1022 30.18 851 25.13 8.4 47.2 46 -2.5 27.5
19:35 1022 30.18 851 25.13 8.3 46.9 47 -2.5 27.5
19:40 1022 30.18 851 25.13 8.2 46.8 46 -2.6 27.2
19:45 1022 30.18 851 25.13 8.2 46.7 46 -2.7 27.1
19:50 1022 30.18 851 25.13 8.1 46.6 47 -2.6 27.2
19:55 1022 30.18 851 25.13 7.9 46.1 48 -2.4 27.6
20:00 1022 30.18 851 25.13 7.7 45.8 47 -2.8 26.9
20:05 1022 30.18 851 25.13 7.6 45.7 47 -2.9 26.7
20:10 1022 30.18 851 25.13 7.7 45.9 47 -3 26.6
20:15 1022 30.18 851 25.13 7.9 46.2 45 -3.3 26.1
20:20 1022 30.18 851 25.13 8.4 47.1 43 -3.4 25.9
20:25 1022 30.18 851 25.13 8.6 47.4 43 -3.3 26
20:30 1022 30.18 851 25.13 8.4 47.2 43 -3.3 26.1
20:35 1022 30.18 851 25.13 8.4 47.2 43 -3.3 26.1
20:40 1022 30.18 851 25.13 8.4 47.1 43 -3.5 25.8
20:45 1022 30.18 851 25.13 8.5 47.4 42 -3.6 25.5
20:50 1022 30.18 851 25.13 8.9 47.9 40 -3.8 25.1
20:55 1022 30.18 851 25.13 9.2 48.5 39 -3.9 25
21:00 1022 30.18 851 25.13 9.3 48.7 39 -3.8 25.1
21:05 1022 30.18 851 25.13 9.2 48.6 40 -3.8 25.2
21:10 1022 30.18 851 25.13 9.1 48.4 39 -4 24.9
21:15 1022 30.18 851 25.13 9 48.1 39 -4.3 24.3
21:20 1022 30.18 851 25.13 9.1 48.3 41 -3.5 25.6
21:25 1022 30.18 851 25.13 8.6 47.5 42 -3.6 25.6
21:30 1022 30.18 851 25.13 8.3 47 42 -3.6 25.4
21:35 1022 30.18 851 25.13 8.2 46.7 43 -3.6 25.6
21:40 1022 30.18 851 25.13 7.9 46.2 45 -3.4 25.8
21:45 1022 30.18 851 25.13 7.5 45.5 46 -3.4 25.9
21:50 1022 30.18 852 25.16 7.2 45 46 -3.6 25.5
21:55 1022 30.18 852 25.16 7.4 45.2 45 -3.8 25.2
22:00 1022 30.18 852 25.16 7.2 45 46 -3.7 25.3
22:05 1022 30.18 852 25.16 7 44.7 47 -3.5 25.8
22:10 1022 30.18 852 25.16 6.9 44.4 46 -3.9 25
22:15 1022 30.18 852 25.16 7.2 44.9 46 -3.7 25.3
22:20 1022 30.18 852 25.16 7.1 44.7 46 -3.7 25.3
22:25 1022 30.18 852 25.16 7.1 44.8 46 -3.9 25.1
22:30 1022 30.18 852 25.16 7.5 45.4 43 -4.3 24.2
22:35 1023 30.21 852 25.16 7.8 46 44 -3.6 25.5
22:40 1023 30.21 852 25.16 7.7 45.8 44 -3.8 25.1
22:45 1023 30.21 852 25.16 7.5 45.5 45 -3.5 25.6
22:50 1023 30.21 852 25.16 7.1 44.7 46 -3.7 25.3
22:55 1023 30.21 852 25.16 6.8 44.3 47 -3.7 25.4
23:00 1023 30.21 852 25.16 6.3 43.3 49 -3.7 25.3
23:05 1023 30.21 852 25.16 6.3 43.4 49 -3.7 25.3
23:10 1023 30.21 852 25.16 5.9 42.7 50 -3.7 25.4
23:15 1023 30.21 852 25.16 5.7 42.3 51 -3.7 25.4
23:20 1023 30.21 852 25.16 5.5 41.9 51 -3.7 25.3
23:25 1023 30.21 852 25.16 5.6 42.1 50 -4 24.7
23:30 1023 30.21 852 25.16 5.9 42.6 50 -3.8 25.1
23:35 1023 30.21 852 25.16 6 42.8 48 -4.2 24.4
23:40 1023 30.21 852 25.16 6.2 43.1 48 -3.9 24.9
23:45 1023 30.21 852 25.16 5.9 42.7 49 -3.9 24.9
23:50 1023 30.21 852 25.16 5.8 42.4 50 -3.9 25
23:55 1023 30.21 852 25.16 5.8 42.4 50 -3.9 24.9
24:00 1023 30.21 852 25.16 6 42.7 49 -4.1 24.7